createdAt,value
2019-03-20T00:00:06.791Z,16.33
2019-03-20T00:02:35.200Z,7.97
2019-03-20T00:05:04.632Z,10.27
2019-03-20T00:07:33.020Z,10.47
2019-03-20T00:10:01.440Z,8.93
2019-03-20T00:12:29.836Z,11.67
2019-03-20T00:14:58.299Z,10.63
2019-03-20T00:17:27.283Z,9.63
2019-03-20T00:19:55.785Z,9.60
2019-03-20T00:22:24.248Z,9.37
2019-03-20T00:24:52.652Z,9.97
2019-03-20T00:27:21.054Z,10.80
2019-03-20T00:29:49.436Z,8.07
2019-03-20T00:32:17.857Z,9.50
2019-03-20T00:34:46.239Z,8.20
2019-03-20T00:37:14.629Z,9.20
2019-03-20T00:39:43.043Z,8.80
2019-03-20T00:42:11.436Z,13.37
2019-03-20T00:44:39.828Z,8.57
2019-03-20T00:47:08.592Z,9.57
2019-03-20T00:49:36.988Z,10.17
2019-03-20T00:52:05.407Z,11.37
2019-03-20T00:54:33.824Z,9.53
2019-03-20T00:57:02.218Z,6.83
2019-03-20T00:59:30.608Z,9.97
2019-03-20T01:01:59.039Z,7.17
2019-03-20T01:04:27.432Z,8.17
2019-03-20T01:06:55.820Z,8.17
2019-03-20T01:09:24.239Z,9.67
2019-03-20T01:11:52.644Z,9.70
2019-03-20T01:14:21.032Z,9.93
2019-03-20T01:16:49.443Z,9.53
2019-03-20T01:19:17.863Z,7.90
2019-03-20T01:21:46.249Z,8.27
2019-03-20T01:24:14.673Z,9.03
2019-03-20T01:26:43.065Z,9.77
2019-03-20T01:29:11.457Z,9.50
2019-03-20T01:31:39.881Z,10.40
2019-03-20T01:34:08.280Z,9.93
2019-03-20T01:36:36.669Z,12.90
2019-03-20T01:39:06.548Z,12.80
2019-03-20T01:41:38.205Z,10.10
2019-03-20T01:44:05.095Z,11.33
2019-03-20T01:46:33.485Z,9.27
2019-03-20T01:49:01.898Z,13.77
2019-03-20T01:51:30.385Z,11.20
2019-03-20T01:53:58.803Z,10.00
2019-03-20T01:56:27.193Z,11.20
2019-03-20T01:58:55.597Z,15.00
2019-03-20T02:01:24.024Z,12.03
2019-03-20T02:03:52.419Z,8.87
2019-03-20T02:06:21.785Z,8.57
2019-03-20T02:08:50.202Z,11.07
2019-03-20T02:11:18.658Z,11.27
2019-03-20T02:13:47.049Z,11.63
2019-03-20T02:16:15.486Z,9.80
2019-03-20T02:18:43.864Z,13.67
2019-03-20T02:21:12.259Z,10.10
2019-03-20T02:23:40.690Z,10.53
2019-03-20T02:26:09.079Z,10.17
2019-03-20T02:28:37.485Z,12.10
2019-03-20T02:31:05.901Z,10.23
2019-03-20T02:33:34.285Z,14.20
2019-03-20T02:36:08.917Z,10.50
2019-03-20T02:38:37.338Z,12.30
2019-03-20T02:41:05.774Z,9.50
2019-03-20T02:43:34.171Z,9.93
2019-03-20T02:46:02.567Z,8.40
2019-03-20T02:48:31.022Z,12.70
2019-03-20T02:50:59.429Z,10.47
2019-03-20T02:53:27.823Z,9.27
2019-03-20T02:55:56.440Z,8.27
2019-03-20T02:58:24.835Z,11.20
2019-03-20T03:00:53.238Z,9.40
2019-03-20T03:03:21.664Z,10.43
2019-03-20T03:05:50.098Z,9.80
2019-03-20T03:08:18.492Z,9.87
2019-03-20T03:10:46.886Z,9.37
2019-03-20T03:13:15.384Z,11.13
2019-03-20T03:15:43.774Z,10.33
2019-03-20T03:18:12.175Z,11.43
2019-03-20T03:20:40.605Z,12.80
2019-03-20T03:23:09.000Z,10.90
2019-03-20T03:25:37.758Z,14.97
2019-03-20T03:28:06.190Z,11.87
2019-03-20T03:30:34.614Z,13.13
2019-03-20T03:33:03.054Z,10.97
2019-03-20T03:35:31.514Z,12.57
2019-03-20T03:37:59.919Z,11.57
2019-03-20T03:40:28.313Z,13.63
2019-03-20T03:42:56.834Z,11.70
2019-03-20T03:45:25.236Z,13.13
2019-03-20T03:47:53.657Z,10.67
2019-03-20T03:50:22.081Z,11.20
2019-03-20T03:52:50.484Z,11.87
2019-03-20T03:55:18.887Z,12.50
2019-03-20T03:57:47.386Z,14.27
2019-03-20T04:00:19.838Z,10.93
2019-03-20T04:02:48.403Z,9.90
2019-03-20T04:05:17.196Z,9.77
2019-03-20T04:07:45.566Z,13.73
2019-03-20T04:10:15.537Z,7.90
2019-03-20T04:12:44.005Z,10.10
2019-03-20T04:15:16.449Z,11.77
2019-03-20T04:17:44.918Z,14.83
2019-03-20T04:20:15.462Z,8.20
2019-03-20T04:22:44.024Z,14.03
2019-03-20T04:25:13.053Z,9.93
2019-03-20T04:27:41.600Z,12.47
2019-03-20T04:30:14.569Z,6.93
2019-03-20T04:32:42.974Z,10.43
2019-03-20T04:35:11.817Z,10.27
2019-03-20T04:37:40.277Z,8.63
2019-03-20T04:40:14.757Z,10.17
2019-03-20T04:42:43.148Z,10.70
2019-03-20T04:45:12.905Z,10.73
2019-03-20T04:47:41.458Z,9.93
2019-03-20T04:50:11.541Z,11.43
2019-03-20T04:52:39.950Z,12.53
2019-03-20T04:55:08.995Z,12.83
2019-03-20T04:57:37.385Z,8.80
2019-03-20T05:00:08.898Z,11.63
2019-03-20T05:02:37.298Z,10.13
2019-03-20T05:05:06.524Z,10.87
2019-03-20T05:07:34.987Z,10.77
2019-03-20T05:10:05.523Z,8.23
2019-03-20T05:12:33.917Z,10.97
2019-03-20T05:15:02.524Z,9.17
2019-03-20T05:17:30.914Z,11.37
2019-03-20T05:19:59.442Z,11.97
2019-03-20T05:22:27.907Z,12.73
2019-03-20T05:24:56.308Z,12.03
2019-03-20T05:27:24.703Z,10.80
2019-03-20T05:29:53.194Z,8.63
2019-03-20T05:32:21.594Z,12.10
2019-03-20T05:34:50.018Z,11.90
2019-03-20T05:37:18.460Z,12.57
2019-03-20T05:39:46.849Z,12.20
2019-03-20T05:42:15.265Z,13.33
2019-03-20T05:44:43.682Z,14.67
2019-03-20T05:47:12.102Z,13.57
2019-03-20T05:49:40.501Z,10.83
2019-03-20T05:52:09.546Z,11.13
2019-03-20T05:54:38.065Z,9.27
2019-03-20T05:57:06.461Z,13.60
2019-03-20T05:59:34.889Z,11.53
2019-03-20T06:02:03.374Z,16.13
2019-03-20T06:04:31.789Z,11.40
2019-03-20T06:07:00.214Z,12.67
2019-03-20T06:09:28.617Z,13.07
2019-03-20T06:11:57.032Z,14.17
2019-03-20T06:14:25.465Z,14.53
2019-03-20T06:16:53.866Z,12.30
2019-03-20T06:19:22.268Z,12.60
2019-03-20T06:21:50.685Z,9.97
2019-03-20T06:24:19.089Z,12.27
2019-03-20T06:26:47.485Z,10.30
2019-03-20T06:29:16.005Z,9.77
2019-03-20T06:31:44.408Z,9.93
2019-03-20T06:34:12.909Z,12.57
2019-03-20T06:36:43.014Z,14.23
2019-03-20T06:39:11.406Z,10.73
2019-03-20T06:41:39.845Z,11.10
2019-03-20T06:44:08.305Z,13.93
2019-03-20T06:46:36.718Z,10.40
2019-03-20T06:49:07.754Z,11.13
2019-03-20T06:51:35.463Z,12.60
2019-03-20T06:54:03.880Z,11.27
2019-03-20T06:56:32.638Z,9.67
2019-03-20T06:59:19.351Z,11.10
2019-03-20T07:01:47.547Z,11.73
2019-03-20T07:04:19.086Z,10.63
2019-03-20T07:07:05.976Z,8.70
2019-03-20T07:09:40.210Z,10.47
2019-03-20T07:12:08.623Z,12.87
2019-03-20T07:14:37.030Z,11.73
2019-03-20T07:17:05.453Z,12.77
2019-03-20T07:19:33.847Z,12.27
2019-03-20T07:22:02.244Z,12.00
2019-03-20T07:24:30.673Z,12.87
2019-03-20T07:26:59.081Z,10.10
2019-03-20T07:29:27.493Z,13.37
2019-03-20T07:31:55.905Z,17.47
2019-03-20T07:34:24.309Z,10.07
2019-03-20T07:36:52.799Z,14.47
2019-03-20T07:39:21.204Z,13.73
2019-03-20T07:41:49.875Z,12.70
2019-03-20T07:44:18.277Z,12.83
2019-03-20T07:46:46.653Z,15.43
2019-03-20T07:49:15.081Z,11.60
2019-03-20T07:51:43.489Z,12.70
2019-03-20T07:54:11.882Z,11.83
2019-03-20T07:56:40.313Z,12.23
2019-03-20T07:59:08.702Z,9.93
2019-03-20T08:01:37.129Z,11.53
2019-03-20T08:04:05.529Z,12.27
2019-03-20T08:06:34.005Z,10.83
2019-03-20T08:09:02.435Z,10.23
2019-03-20T08:11:30.827Z,12.87
2019-03-20T08:13:59.269Z,14.70
2019-03-20T08:16:28.174Z,15.63
2019-03-20T08:18:56.584Z,13.40
2019-03-20T08:21:24.986Z,12.10
2019-03-20T08:23:53.407Z,12.33
2019-03-20T08:26:21.808Z,10.10
2019-03-20T08:28:50.200Z,11.00
2019-03-20T08:31:18.631Z,10.03
2019-03-20T08:33:47.120Z,9.33
2019-03-20T08:36:15.520Z,10.63
2019-03-20T08:38:43.954Z,9.50
2019-03-20T08:41:12.349Z,12.70
2019-03-20T08:43:40.762Z,11.73
2019-03-20T08:46:09.433Z,14.00
2019-03-20T08:48:37.829Z,8.90
2019-03-20T08:51:06.225Z,9.40
2019-03-20T08:53:34.655Z,11.43
2019-03-20T08:56:03.060Z,12.27
2019-03-20T08:58:31.451Z,13.83
2019-03-20T09:00:59.869Z,9.23
2019-03-20T09:03:28.270Z,10.37
2019-03-20T09:05:56.700Z,10.40
2019-03-20T09:08:29.731Z,10.33
2019-03-20T09:10:55.234Z,9.57
2019-03-20T09:13:23.651Z,7.93
2019-03-20T09:15:52.052Z,10.23
2019-03-20T09:18:20.457Z,8.93
2019-03-20T09:20:48.889Z,10.50
2019-03-20T09:23:17.285Z,11.30
2019-03-20T09:25:45.688Z,8.27
2019-03-20T09:28:14.378Z,6.75
2019-03-20T09:30:42.797Z,9.57
2019-03-20T09:33:11.181Z,9.40
2019-03-20T09:35:39.631Z,10.17
2019-03-20T09:38:08.022Z,9.60
2019-03-20T09:40:36.497Z,8.67
2019-03-20T09:43:04.925Z,8.47
2019-03-20T09:45:33.325Z,7.93
2019-03-20T09:48:01.730Z,10.77
2019-03-20T09:50:30.157Z,9.60
2019-03-20T09:52:58.548Z,9.17
2019-03-20T09:55:26.951Z,9.53
2019-03-20T09:57:55.397Z,8.73
2019-03-20T10:00:25.907Z,11.00
2019-03-20T10:02:54.555Z,10.83
2019-03-20T10:05:23.057Z,7.90
2019-03-20T10:07:51.630Z,7.80
2019-03-20T10:10:25.386Z,8.83
2019-03-20T10:12:53.825Z,7.03
2019-03-20T10:15:32.651Z,7.20
2019-03-20T10:18:01.085Z,9.17
2019-03-20T10:20:29.507Z,10.53
2019-03-20T10:22:57.911Z,7.50
2019-03-20T10:25:26.311Z,6.63
2019-03-20T10:27:54.746Z,8.30
2019-03-20T10:30:25.281Z,10.07
2019-03-20T10:32:53.677Z,6.50
2019-03-20T10:35:22.101Z,6.60
2019-03-20T10:37:50.530Z,8.13
2019-03-20T10:40:24.591Z,6.70
2019-03-20T10:42:53.044Z,8.23
2019-03-20T10:45:21.692Z,9.77
2019-03-20T10:47:53.081Z,7.60
2019-03-20T10:50:23.955Z,9.63
2019-03-20T10:52:52.461Z,6.17
2019-03-20T10:55:20.874Z,6.57
2019-03-20T10:57:49.308Z,6.33
2019-03-20T11:00:21.940Z,6.97
2019-03-20T11:02:50.430Z,5.57
2019-03-20T11:05:19.020Z,7.60
2019-03-20T11:07:47.485Z,6.60
2019-03-20T11:10:24.114Z,6.30
2019-03-20T11:12:52.862Z,4.77
2019-03-20T11:15:22.363Z,5.03
2019-03-20T11:17:51.350Z,5.90
2019-03-20T11:20:21.574Z,7.80
2019-03-20T11:22:50.044Z,6.50
2019-03-20T11:25:25.895Z,5.43
2019-03-20T11:27:54.398Z,6.10
2019-03-20T11:30:25.129Z,4.80
2019-03-20T11:32:53.521Z,6.13
2019-03-20T11:35:22.432Z,6.50
2019-03-20T11:37:51.261Z,4.70
2019-03-20T11:40:24.825Z,6.07
2019-03-20T11:42:53.513Z,8.30
2019-03-20T11:45:23.482Z,4.97
2019-03-20T11:47:52.455Z,5.20
2019-03-20T11:50:40.616Z,5.43
2019-03-20T11:53:09.674Z,3.97
2019-03-20T11:55:38.530Z,3.97
2019-03-20T11:58:08.204Z,4.53
2019-03-20T12:00:36.754Z,6.03
2019-03-20T12:03:05.570Z,3.83
2019-03-20T12:05:34.002Z,3.83
2019-03-20T12:08:03.857Z,4.97
2019-03-20T12:10:33.186Z,5.00
2019-03-20T12:13:01.606Z,3.67
2019-03-20T12:15:30.185Z,3.97
2019-03-20T12:17:58.606Z,4.10
2019-03-20T12:20:27.081Z,4.10
2019-03-20T12:22:55.605Z,4.70
2019-03-20T12:25:38.197Z,4.40
2019-03-20T12:28:07.622Z,5.97
2019-03-20T12:30:37.157Z,4.07
2019-03-20T12:33:06.104Z,2.90
2019-03-20T12:35:37.081Z,3.83
2019-03-20T12:38:14.183Z,4.40
2019-03-20T12:40:36.330Z,3.40
2019-03-20T12:43:05.817Z,4.57
2019-03-20T12:45:38.300Z,3.67
2019-03-20T12:48:08.963Z,4.27
2019-03-20T12:50:37.601Z,3.23
2019-03-20T12:53:07.571Z,3.30
2019-03-20T12:55:35.969Z,5.33
2019-03-20T12:58:04.517Z,4.73
2019-03-20T13:00:33.009Z,5.50
2019-03-20T13:03:01.727Z,5.67
2019-03-20T13:05:30.133Z,3.27
2019-03-20T13:08:05.494Z,5.97
2019-03-20T13:10:28.971Z,3.83
2019-03-20T13:12:57.372Z,2.50
2019-03-20T13:15:26.937Z,4.63
2019-03-20T13:17:56.377Z,3.33
2019-03-20T13:20:24.951Z,4.03
2019-03-20T13:22:59.610Z,3.13
2019-03-20T13:25:28.033Z,3.93
2019-03-20T13:27:56.568Z,3.47
2019-03-20T13:30:34.077Z,3.13
2019-03-20T13:33:02.481Z,6.17
2019-03-20T13:35:30.884Z,6.93
2019-03-20T13:37:59.329Z,4.30
2019-03-20T13:40:27.756Z,5.63
2019-03-20T13:42:56.174Z,3.40
2019-03-20T13:45:25.846Z,4.23
2019-03-20T13:47:54.239Z,3.83
2019-03-20T13:50:22.638Z,3.47
2019-03-20T13:52:51.086Z,2.27
2019-03-20T13:55:19.486Z,3.13
2019-03-20T13:57:47.886Z,3.47
2019-03-20T14:00:28.389Z,3.77
2019-03-20T14:02:56.794Z,2.80
2019-03-20T14:05:25.278Z,3.07
2019-03-20T14:07:53.849Z,3.60
2019-03-20T14:10:26.720Z,2.90
2019-03-20T14:12:55.153Z,3.67
2019-03-20T14:15:23.580Z,3.17
2019-03-20T14:17:51.981Z,3.53
2019-03-20T14:20:28.620Z,4.45
2019-03-20T14:22:57.026Z,3.47
2019-03-20T14:25:25.696Z,2.77
2019-03-20T14:27:54.201Z,4.40
2019-03-20T14:30:24.130Z,2.77
2019-03-20T14:32:52.531Z,3.53
2019-03-20T14:35:21.447Z,2.30
2019-03-20T14:37:50.287Z,3.87
2019-03-20T14:40:35.378Z,2.83
2019-03-20T14:42:57.333Z,3.10
2019-03-20T14:45:25.965Z,4.37
2019-03-20T14:47:54.373Z,3.40
2019-03-20T14:50:30.058Z,3.67
2019-03-20T14:52:58.549Z,4.60
2019-03-20T14:55:27.127Z,3.40
2019-03-20T14:57:55.735Z,2.90
2019-03-20T15:00:28.274Z,4.40
2019-03-20T15:02:56.817Z,3.17
2019-03-20T15:05:25.622Z,3.13
2019-03-20T15:07:54.084Z,2.87
2019-03-20T15:10:26.474Z,4.62
2019-03-20T15:12:55.622Z,4.87
2019-03-20T15:15:39.226Z,3.13
2019-03-20T15:18:08.604Z,2.43
2019-03-20T15:20:37.011Z,4.47
2019-03-20T15:23:05.423Z,4.73
2019-03-20T15:25:33.845Z,2.57
2019-03-20T15:28:02.275Z,5.60
2019-03-20T15:30:30.695Z,4.37
2019-03-20T15:32:59.149Z,5.50
2019-03-20T15:35:27.557Z,5.60
2019-03-20T15:37:55.967Z,3.60
2019-03-20T15:40:28.302Z,3.70
2019-03-20T15:42:57.075Z,2.40
2019-03-20T15:45:25.474Z,1.83
2019-03-20T15:47:53.916Z,2.07
2019-03-20T15:50:24.345Z,3.08
2019-03-20T15:52:52.747Z,2.53
2019-03-20T15:55:29.357Z,3.97
2019-03-20T15:57:57.764Z,3.17
2019-03-20T16:00:26.183Z,2.63
2019-03-20T16:03:15.740Z,2.70
2019-03-20T16:05:44.229Z,2.33
2019-03-20T16:08:12.682Z,3.20
2019-03-20T16:10:41.186Z,3.53
2019-03-20T16:13:09.578Z,3.50
2019-03-20T16:15:38.014Z,4.23
2019-03-20T16:18:06.653Z,3.83
2019-03-20T16:20:35.615Z,2.27
2019-03-20T16:23:04.496Z,2.93
2019-03-20T16:25:33.442Z,4.20
2019-03-20T16:28:01.967Z,2.07
2019-03-20T16:30:32.374Z,3.10
2019-03-20T16:33:00.849Z,4.20
2019-03-20T16:35:29.258Z,3.80
2019-03-20T16:37:57.654Z,4.67
2019-03-20T16:40:36.083Z,4.07
2019-03-20T16:43:04.950Z,3.27
2019-03-20T16:45:34.390Z,2.60
2019-03-20T16:48:02.929Z,6.17
2019-03-20T16:50:31.487Z,4.33
2019-03-20T16:52:59.919Z,7.33
2019-03-20T16:55:28.404Z,6.80
2019-03-20T16:57:56.834Z,4.33
2019-03-20T17:00:32.434Z,4.10
2019-03-20T17:03:00.907Z,2.87
2019-03-20T17:05:30.233Z,2.23
2019-03-20T17:07:58.712Z,4.47
2019-03-20T17:10:29.816Z,4.90
2019-03-20T17:12:58.681Z,5.57
2019-03-20T17:15:35.009Z,3.63
2019-03-20T17:18:03.785Z,4.67
2019-03-20T17:20:32.443Z,4.83
2019-03-20T17:23:00.848Z,5.33
2019-03-20T17:25:29.258Z,5.13
2019-03-20T17:27:57.940Z,5.20
2019-03-20T17:30:28.763Z,3.33
2019-03-20T17:32:57.249Z,4.73
2019-03-20T17:35:25.805Z,5.00
2019-03-20T17:37:54.205Z,6.77
2019-03-20T17:40:23.680Z,6.43
2019-03-20T17:42:52.445Z,5.03
2019-03-20T17:45:23.285Z,6.37
2019-03-20T17:47:51.689Z,4.40
2019-03-20T17:50:25.157Z,6.40
2019-03-20T17:52:53.751Z,4.70
2019-03-20T17:55:22.179Z,7.27
2019-03-20T17:57:50.617Z,5.50
2019-03-20T18:00:23.022Z,5.17
2019-03-20T18:02:51.443Z,6.30
2019-03-20T18:05:19.955Z,7.97
2019-03-20T18:07:48.369Z,5.27
2019-03-20T18:10:16.787Z,9.13
2019-03-20T18:12:45.215Z,5.10
2019-03-20T18:15:18.015Z,4.93
2019-03-20T18:17:46.414Z,4.73
2019-03-20T18:20:16.577Z,11.53
2019-03-20T18:22:45.347Z,8.40
2019-03-20T18:25:14.308Z,6.73
2019-03-20T18:27:42.713Z,7.20
2019-03-20T18:30:27.840Z,7.07
2019-03-20T18:32:56.412Z,7.33
2019-03-20T18:35:24.813Z,7.50
2019-03-20T18:37:53.246Z,9.97
2019-03-20T18:40:23.057Z,5.17
2019-03-20T18:42:51.483Z,4.73
2019-03-20T18:45:21.551Z,4.50
2019-03-20T18:47:49.997Z,7.93
2019-03-20T18:50:19.570Z,6.13
2019-03-20T18:52:48.724Z,4.57
2019-03-20T18:55:20.404Z,7.63
2019-03-20T18:57:49.353Z,6.67
2019-03-20T19:00:25.222Z,7.03
2019-03-20T19:02:56.010Z,4.37
2019-03-20T19:05:30.427Z,5.50
2019-03-20T19:07:58.837Z,3.80
2019-03-20T19:10:27.360Z,4.97
2019-03-20T19:12:55.830Z,4.40
2019-03-20T19:15:24.230Z,8.93
2019-03-20T19:17:52.730Z,10.10
2019-03-20T19:20:21.208Z,13.60
2019-03-20T19:22:49.654Z,9.47
2019-03-20T19:25:18.577Z,8.07
2019-03-20T19:27:47.048Z,6.70
2019-03-20T19:30:24.071Z,9.27
2019-03-20T19:32:52.511Z,9.10
2019-03-20T19:35:21.013Z,8.17
2019-03-20T19:37:49.392Z,7.10
2019-03-20T19:40:19.494Z,7.67
2019-03-20T19:42:47.897Z,7.23
2019-03-20T19:45:19.107Z,6.90
2019-03-20T19:47:47.611Z,6.80
2019-03-20T19:50:17.058Z,6.73
2019-03-20T19:52:45.453Z,7.50
2019-03-20T19:55:16.005Z,8.20
2019-03-20T19:57:44.405Z,8.50
2019-03-20T20:00:17.707Z,6.43
2019-03-20T20:02:46.137Z,6.87
2019-03-20T20:05:16.208Z,6.67
2019-03-20T20:07:44.871Z,5.53
2019-03-20T20:10:16.889Z,5.47
2019-03-20T20:12:45.363Z,6.73
2019-03-20T20:15:22.397Z,5.93
2019-03-20T20:17:51.099Z,7.03
2019-03-20T20:20:21.698Z,5.97
2019-03-20T20:22:50.434Z,7.57
2019-03-20T20:25:18.883Z,7.07
2019-03-20T20:27:47.499Z,7.87
2019-03-20T20:30:18.326Z,5.60
2019-03-20T20:32:46.717Z,6.77
2019-03-20T20:35:16.177Z,7.60
2019-03-20T20:37:45.622Z,7.67
2019-03-20T20:40:19.118Z,6.87
2019-03-20T20:42:47.828Z,7.60
2019-03-20T20:45:16.226Z,6.97
2019-03-20T20:47:44.654Z,7.00
2019-03-20T20:50:14.226Z,6.67
2019-03-20T20:52:42.890Z,5.63
2019-03-20T20:55:13.442Z,9.13
2019-03-20T20:57:41.897Z,9.33
2019-03-20T21:00:26.076Z,6.57
2019-03-20T21:02:54.661Z,7.07
2019-03-20T21:05:23.080Z,7.47
2019-03-20T21:07:51.493Z,7.07
2019-03-20T21:10:21.137Z,6.00
2019-03-20T21:12:56.056Z,5.30
2019-03-20T21:15:34.101Z,7.07
2019-03-20T21:18:34.070Z,9.33
2019-03-20T21:21:02.512Z,6.87
2019-03-20T21:23:59.940Z,7.60
2019-03-20T21:26:31.441Z,7.43
2019-03-20T21:29:34.888Z,7.57
2019-03-20T21:32:09.476Z,7.07
2019-03-20T21:35:12.952Z,7.00
2019-03-20T21:38:05.580Z,7.97
2019-03-20T21:40:55.106Z,8.17
2019-03-20T21:43:44.494Z,6.27
2019-03-20T21:46:35.693Z,6.67
2019-03-20T21:49:04.274Z,7.10
2019-03-20T21:51:32.680Z,6.40
2019-03-20T21:54:12.913Z,8.10
2019-03-20T21:57:10.490Z,7.03
2019-03-20T21:59:59.617Z,6.43
2019-03-20T22:02:41.792Z,9.10
2019-03-20T22:05:41.828Z,7.20
2019-03-20T22:08:10.228Z,6.87
2019-03-20T22:10:59.926Z,8.13
2019-03-20T22:13:36.974Z,8.33
2019-03-20T22:16:24.946Z,9.27
2019-03-20T22:19:13.250Z,7.37
2019-03-20T22:22:18.514Z,7.27
2019-03-20T22:24:56.021Z,7.60
2019-03-20T22:27:36.657Z,8.03
2019-03-20T22:30:07.796Z,9.30
2019-03-20T22:32:54.077Z,7.90
2019-03-20T22:35:34.654Z,8.57
2019-03-20T22:38:05.901Z,6.53
2019-03-20T22:40:43.242Z,6.70
2019-03-20T22:43:29.673Z,9.70
2019-03-20T22:46:11.485Z,7.77
2019-03-20T22:48:48.974Z,9.27
2019-03-20T22:51:29.299Z,9.60
2019-03-20T22:54:17.425Z,10.23
2019-03-20T22:56:57.485Z,8.80
2019-03-20T22:59:25.908Z,7.03
2019-03-20T23:02:00.301Z,7.10
2019-03-20T23:04:34.964Z,9.50
2019-03-20T23:07:03.374Z,10.40
2019-03-20T23:09:31.772Z,6.73
2019-03-20T23:12:01.858Z,6.63
2019-03-20T23:14:30.260Z,8.37
2019-03-20T23:16:58.707Z,5.80
2019-03-20T23:19:27.103Z,7.53
2019-03-20T23:21:55.552Z,7.60
2019-03-20T23:24:23.945Z,8.27
2019-03-20T23:26:52.410Z,9.33
2019-03-20T23:29:21.517Z,7.63
2019-03-20T23:31:49.919Z,6.93
2019-03-20T23:34:18.344Z,7.43
2019-03-20T23:36:46.868Z,6.83
2019-03-20T23:39:15.273Z,6.40
2019-03-20T23:41:43.713Z,7.33
2019-03-20T23:44:12.142Z,7.87
2019-03-20T23:46:40.530Z,8.87
2019-03-20T23:49:18.271Z,7.57
2019-03-20T23:51:46.681Z,9.77
2019-03-20T23:54:17.234Z,9.57
2019-03-20T23:56:45.675Z,8.70
2019-03-20T23:59:14.118Z,8.53
